createdAt,value
2023-01-28T00:01:28.347Z,0.94
2023-01-28T00:03:56.250Z,0.93
2023-01-28T00:06:24.074Z,0.93
2023-01-28T00:08:51.960Z,0.94
2023-01-28T00:11:19.776Z,0.94
2023-01-28T00:13:47.628Z,0.93
2023-01-28T00:16:15.526Z,0.92
2023-01-28T00:18:43.496Z,0.94
2023-01-28T00:21:13.479Z,0.93
2023-01-28T00:23:41.922Z,0.95
2023-01-28T00:26:14.096Z,0.98
2023-01-28T00:28:43.011Z,0.95
2023-01-28T00:31:21.310Z,0.96
2023-01-28T00:33:49.981Z,0.98
2023-01-28T00:36:20.627Z,0.96
2023-01-28T00:39:06.680Z,0.97
2023-01-28T00:41:34.436Z,0.98
2023-01-28T00:44:02.290Z,0.95
2023-01-28T00:46:30.065Z,0.95
2023-01-28T00:48:58.107Z,0.94
2023-01-28T00:51:26.066Z,0.95
2023-01-28T00:53:55.310Z,0.94
2023-01-28T00:56:23.171Z,0.95
2023-01-28T00:58:51.207Z,0.96
2023-01-28T01:01:23.824Z,0.96
2023-01-28T01:04:03.462Z,0.93
2023-01-28T01:06:36.337Z,0.94
2023-01-28T01:09:08.113Z,0.94
2023-01-28T01:11:36.319Z,0.90
2023-01-28T01:14:06.290Z,0.89
2023-01-28T01:16:34.579Z,0.89
2023-01-28T01:19:03.914Z,0.91
2023-01-28T01:21:31.918Z,0.93
2023-01-28T01:23:59.749Z,0.92
2023-01-28T01:26:28.827Z,0.94
2023-01-28T01:28:56.638Z,0.93
2023-01-28T01:31:24.658Z,0.95
2023-01-28T01:33:52.805Z,0.96
2023-01-28T01:36:22.845Z,0.96
2023-01-28T01:38:54.558Z,0.95
2023-01-28T01:41:31.162Z,0.93
2023-01-28T01:44:00.932Z,0.94
2023-01-28T01:46:28.584Z,0.93
2023-01-28T01:48:56.735Z,0.95
2023-01-28T01:51:32.219Z,0.91
2023-01-28T01:54:00.062Z,0.93
2023-01-28T01:56:30.837Z,0.90
2023-01-28T01:58:58.597Z,0.91
2023-01-28T02:01:28.876Z,0.90
2023-01-28T02:04:04.053Z,0.93
2023-01-28T02:06:32.392Z,0.95
2023-01-28T02:09:00.253Z,0.91
2023-01-28T02:11:30.535Z,0.95
2023-01-28T02:13:59.335Z,0.92
2023-01-28T02:16:27.275Z,0.90
2023-01-28T02:18:55.113Z,0.93
2023-01-28T02:21:37.824Z,0.91
2023-01-28T02:24:38.864Z,0.89
2023-01-28T02:27:37.125Z,0.89
2023-01-28T02:30:09.115Z,0.90
2023-01-28T02:33:14.514Z,0.88
2023-01-28T02:35:56.174Z,0.89
2023-01-28T02:38:33.350Z,0.87
2023-01-28T02:41:07.659Z,0.86
2023-01-28T02:43:35.744Z,0.90
2023-01-28T02:46:39.925Z,0.90
2023-01-28T02:49:24.094Z,0.93
2023-01-28T02:52:06.717Z,0.89
2023-01-28T02:54:46.132Z,0.88
2023-01-28T02:57:31.827Z,0.87
2023-01-28T03:00:13.378Z,0.89
2023-01-28T03:02:48.066Z,0.86
2023-01-28T03:05:21.634Z,0.87
2023-01-28T03:07:49.437Z,0.87
2023-01-28T03:10:19.011Z,0.89
2023-01-28T03:13:05.608Z,0.89
2023-01-28T03:16:06.428Z,0.91
2023-01-28T03:18:59.832Z,0.89
2023-01-28T03:21:50.776Z,0.86
2023-01-28T03:24:46.146Z,0.86
2023-01-28T03:27:43.291Z,0.87
2023-01-28T03:30:42.720Z,0.88
2023-01-28T03:33:29.110Z,0.89
2023-01-28T03:36:15.316Z,0.93
2023-01-28T03:38:43.477Z,0.90
2023-01-28T03:41:12.125Z,0.91
2023-01-28T03:43:39.951Z,0.92
2023-01-28T03:46:07.796Z,0.88
2023-01-28T03:48:35.567Z,0.86
2023-01-28T03:51:03.341Z,0.87
2023-01-28T03:53:31.128Z,0.88
2023-01-28T03:55:59.280Z,0.88
2023-01-28T03:58:47.723Z,0.87
2023-01-28T04:01:15.477Z,0.86
2023-01-28T04:03:43.282Z,0.86
2023-01-28T04:06:11.284Z,0.87
2023-01-28T04:08:39.079Z,0.88
2023-01-28T04:11:20.673Z,0.89
2023-01-28T04:13:49.467Z,0.88
2023-01-28T04:16:17.915Z,0.88
2023-01-28T04:18:45.909Z,0.88
2023-01-28T04:21:13.760Z,0.90
2023-01-28T04:23:41.537Z,0.90
2023-01-28T04:26:09.657Z,0.89
2023-01-28T04:28:37.504Z,0.89
2023-01-28T04:31:05.322Z,0.88
2023-01-28T04:33:33.358Z,0.87
2023-01-28T04:36:01.153Z,0.89
2023-01-28T04:38:28.978Z,0.89
2023-01-28T04:40:56.834Z,0.91
2023-01-28T04:43:24.784Z,0.91
2023-01-28T04:45:52.774Z,0.90
2023-01-28T04:48:20.553Z,0.91
2023-01-28T04:50:48.323Z,0.87
2023-01-28T04:53:16.161Z,0.90
2023-01-28T04:55:43.905Z,0.89
2023-01-28T04:58:11.755Z,0.89
2023-01-28T05:00:39.542Z,0.87
2023-01-28T05:03:07.303Z,0.89
2023-01-28T05:05:35.047Z,0.89
2023-01-28T05:08:02.780Z,0.88
2023-01-28T05:10:30.594Z,0.88
2023-01-28T05:12:58.409Z,0.90
2023-01-28T05:15:26.304Z,0.90
2023-01-28T05:17:57.033Z,0.93
2023-01-28T05:20:25.230Z,0.91
2023-01-28T05:22:53.300Z,0.92
2023-01-28T05:25:21.050Z,0.94
2023-01-28T05:27:54.725Z,0.93
2023-01-28T05:30:22.823Z,0.93
2023-01-28T05:32:50.862Z,0.94
2023-01-28T05:35:18.940Z,0.94
2023-01-28T05:37:46.819Z,0.94
2023-01-28T05:40:15.087Z,0.95
2023-01-28T05:42:43.158Z,0.94
2023-01-28T05:45:11.357Z,0.94
2023-01-28T05:47:39.594Z,0.93
2023-01-28T05:50:08.098Z,0.95
2023-01-28T05:52:35.830Z,0.94
2023-01-28T05:55:04.277Z,0.94
2023-01-28T05:57:32.052Z,0.93
2023-01-28T05:59:59.917Z,0.91
2023-01-28T06:02:27.799Z,0.91
2023-01-28T06:04:55.716Z,0.93
2023-01-28T06:07:25.129Z,0.91
2023-01-28T06:09:53.004Z,0.89
2023-01-28T06:12:20.802Z,0.91
2023-01-28T06:14:48.650Z,0.91
2023-01-28T06:17:16.543Z,0.93
2023-01-28T06:19:45.096Z,0.89
2023-01-28T06:22:12.857Z,0.91
2023-01-28T06:24:40.687Z,0.94
2023-01-28T06:27:08.552Z,0.95
2023-01-28T06:29:36.728Z,0.96
2023-01-28T06:32:04.752Z,0.93
2023-01-28T06:34:32.605Z,0.90
2023-01-28T06:37:00.482Z,0.90
2023-01-28T06:39:29.426Z,0.93
2023-01-28T06:41:57.301Z,0.93
2023-01-28T06:44:25.055Z,0.93
2023-01-28T06:46:52.883Z,0.91
2023-01-28T06:49:21.750Z,0.91
2023-01-28T06:51:49.733Z,0.91
2023-01-28T06:54:17.533Z,0.93
2023-01-28T06:56:45.492Z,0.94
2023-01-28T06:59:13.294Z,0.93
2023-01-28T07:01:41.194Z,0.89
2023-01-28T07:04:09.866Z,0.91
2023-01-28T07:06:37.627Z,0.93
2023-01-28T07:09:05.389Z,0.94
2023-01-28T07:11:33.386Z,0.97
2023-01-28T07:14:01.251Z,0.90
2023-01-28T07:16:28.995Z,0.94
2023-01-28T07:18:56.775Z,0.94
2023-01-28T07:21:24.567Z,0.95
2023-01-28T07:23:52.438Z,0.96
2023-01-28T07:26:21.296Z,0.98
2023-01-28T07:28:49.099Z,1.00
2023-01-28T07:31:17.052Z,1.00
2023-01-28T07:33:44.932Z,1.01
2023-01-28T07:36:12.690Z,1.02
2023-01-28T07:38:40.570Z,1.04
2023-01-28T07:41:08.547Z,1.05
2023-01-28T07:43:36.328Z,1.05
2023-01-28T07:46:04.124Z,1.05
2023-01-28T07:48:32.145Z,1.04
2023-01-28T07:51:00.442Z,1.05
2023-01-28T07:53:28.319Z,1.06
2023-01-28T07:56:03.033Z,1.07
2023-01-28T07:58:30.790Z,1.05
2023-01-28T08:01:00.004Z,1.09
2023-01-28T08:03:28.182Z,1.12
2023-01-28T08:05:57.367Z,1.13
2023-01-28T08:08:25.777Z,1.12
2023-01-28T08:10:53.810Z,1.08
2023-01-28T08:13:21.657Z,1.10
2023-01-28T08:15:49.487Z,1.10
2023-01-28T08:18:17.609Z,1.09
2023-01-28T08:20:46.589Z,1.10
2023-01-28T08:23:23.105Z,1.10
2023-01-28T08:25:51.115Z,1.10
2023-01-28T08:28:18.898Z,1.14
2023-01-28T08:30:46.843Z,1.16
2023-01-28T08:33:18.690Z,1.18
2023-01-28T08:35:46.589Z,1.17
2023-01-28T08:38:14.996Z,1.19
2023-01-28T08:40:42.780Z,1.21
2023-01-28T08:43:10.704Z,1.23
2023-01-28T08:45:38.526Z,1.23
2023-01-28T08:48:06.886Z,1.24
2023-01-28T08:50:36.965Z,1.26
2023-01-28T08:53:12.861Z,1.27
2023-01-28T08:55:40.650Z,1.28
2023-01-28T08:58:11.110Z,1.27
2023-01-28T09:00:39.076Z,1.23
2023-01-28T09:03:07.109Z,1.26
2023-01-28T09:05:38.520Z,1.25
2023-01-28T09:08:11.076Z,1.28
2023-01-28T09:10:39.043Z,1.26
2023-01-28T09:13:07.842Z,1.25
2023-01-28T09:15:35.995Z,1.28
2023-01-28T09:18:03.760Z,1.26
2023-01-28T09:20:36.177Z,1.20
2023-01-28T09:23:04.363Z,1.14
2023-01-28T09:25:32.181Z,1.18
2023-01-28T09:28:00.288Z,1.21
2023-01-28T09:30:28.297Z,1.21
2023-01-28T09:32:56.742Z,1.20
2023-01-28T09:35:24.578Z,1.13
2023-01-28T09:37:53.203Z,1.20
2023-01-28T09:40:48.203Z,1.38
2023-01-28T09:43:39.296Z,1.46
2023-01-28T09:46:07.167Z,1.75
2023-01-28T09:48:55.187Z,1.90
2023-01-28T09:51:33.837Z,2.34
2023-01-28T09:54:07.734Z,2.61
2023-01-28T09:56:42.411Z,2.75
2023-01-28T09:59:21.061Z,2.64
2023-01-28T10:01:56.221Z,2.72
2023-01-28T10:04:56.338Z,3.21
2023-01-28T10:07:36.401Z,3.25
2023-01-28T10:10:26.706Z,3.42
2023-01-28T10:13:03.606Z,3.45
2023-01-28T10:15:54.996Z,3.42
2023-01-28T10:18:55.288Z,3.62
2023-01-28T10:21:40.512Z,3.55
2023-01-28T10:24:29.303Z,3.32
2023-01-28T10:26:57.264Z,3.05
2023-01-28T10:29:32.785Z,3.03
2023-01-28T10:32:01.278Z,2.93
2023-01-28T10:34:29.103Z,2.90
2023-01-28T10:36:58.150Z,3.09
2023-01-28T10:39:26.725Z,3.13
2023-01-28T10:41:58.851Z,3.22
2023-01-28T10:44:52.323Z,3.17
2023-01-28T10:47:30.870Z,3.01
2023-01-28T10:50:00.947Z,3.05
2023-01-28T10:52:28.963Z,3.30
2023-01-28T10:55:06.937Z,3.49
2023-01-28T10:57:35.484Z,3.52
2023-01-28T11:00:21.537Z,3.39
2023-01-28T11:02:49.948Z,3.21
2023-01-28T11:05:26.981Z,3.11
2023-01-28T11:08:27.833Z,3.05
2023-01-28T11:10:56.236Z,2.96
2023-01-28T11:13:28.580Z,2.88
2023-01-28T11:16:07.069Z,2.82
2023-01-28T11:18:36.757Z,2.82
2023-01-28T11:21:06.268Z,2.81
2023-01-28T11:23:43.160Z,2.71
2023-01-28T11:26:28.367Z,2.68
2023-01-28T11:28:56.170Z,2.63
2023-01-28T11:31:25.371Z,2.60
2023-01-28T11:34:00.985Z,2.56
2023-01-28T11:36:33.484Z,2.56
2023-01-28T11:39:03.478Z,2.53
2023-01-28T11:41:33.342Z,2.51
2023-01-28T11:44:17.638Z,2.45
2023-01-28T11:46:48.309Z,2.46
2023-01-28T11:49:29.515Z,2.42
2023-01-28T11:52:19.605Z,2.33
2023-01-28T11:55:24.900Z,2.30
2023-01-28T11:57:56.319Z,2.35
2023-01-28T12:00:48.886Z,2.35
2023-01-28T12:03:35.081Z,2.30
2023-01-28T12:06:30.792Z,2.35
2023-01-28T12:09:01.651Z,2.34
2023-01-28T12:12:04.921Z,2.34
2023-01-28T12:15:05.002Z,2.31
2023-01-28T12:17:38.603Z,2.27
2023-01-28T12:20:15.419Z,2.24
2023-01-28T12:22:56.600Z,2.24
2023-01-28T12:25:33.228Z,2.22
2023-01-28T12:28:38.599Z,2.23
2023-01-28T12:31:34.472Z,2.24
2023-01-28T12:34:23.727Z,2.26
2023-01-28T12:36:56.450Z,2.25
2023-01-28T12:39:33.604Z,2.26
2023-01-28T12:42:16.681Z,2.24
2023-01-28T12:44:55.973Z,2.25
2023-01-28T12:47:25.881Z,2.25
2023-01-28T12:49:59.699Z,2.25
2023-01-28T12:52:34.417Z,2.21
2023-01-28T12:55:14.220Z,2.19
2023-01-28T12:57:42.100Z,2.18
2023-01-28T13:00:27.219Z,2.18
2023-01-28T13:03:12.639Z,2.16
2023-01-28T13:05:43.397Z,2.19
2023-01-28T13:08:19.135Z,2.15
2023-01-28T13:10:48.025Z,2.18
2023-01-28T13:13:35.867Z,2.18
2023-01-28T13:16:04.868Z,2.19
2023-01-28T13:18:52.926Z,2.12
2023-01-28T13:21:27.910Z,2.15
2023-01-28T13:24:18.755Z,2.20
2023-01-28T13:26:51.532Z,2.21
2023-01-28T13:29:25.345Z,2.23
2023-01-28T13:31:56.179Z,2.23
2023-01-28T13:34:57.401Z,2.25
2023-01-28T13:37:36.181Z,2.24
2023-01-28T13:40:26.783Z,2.14
2023-01-28T13:43:01.482Z,2.12
2023-01-28T13:45:29.302Z,2.09
2023-01-28T13:48:25.397Z,2.11
2023-01-28T13:50:54.301Z,2.13
2023-01-28T13:53:41.388Z,2.11
2023-01-28T13:56:17.253Z,2.05
2023-01-28T13:58:50.903Z,2.13
2023-01-28T14:01:27.612Z,2.15
2023-01-28T14:04:26.299Z,2.15
2023-01-28T14:07:17.421Z,2.07
2023-01-28T14:10:04.685Z,2.09
2023-01-28T14:12:48.019Z,2.04
2023-01-28T14:15:31.488Z,2.00
2023-01-28T14:17:59.302Z,1.99
2023-01-28T14:20:56.983Z,1.97
2023-01-28T14:23:24.888Z,2.01
2023-01-28T14:25:52.601Z,2.01
2023-01-28T14:28:40.555Z,2.05
2023-01-28T14:31:35.167Z,2.02
2023-01-28T14:34:14.191Z,2.00
2023-01-28T14:36:42.590Z,2.04
2023-01-28T14:39:20.892Z,2.06
2023-01-28T14:41:53.013Z,2.08
2023-01-28T14:44:43.972Z,2.04
2023-01-28T14:47:43.484Z,2.01
2023-01-28T14:50:30.487Z,2.03
2023-01-28T14:53:29.421Z,2.01
2023-01-28T14:56:01.806Z,2.03
2023-01-28T14:58:32.991Z,2.04
2023-01-28T15:01:01.403Z,1.96
2023-01-28T15:03:30.301Z,1.98
2023-01-28T15:06:08.628Z,1.99
2023-01-28T15:08:38.496Z,1.97
2023-01-28T15:11:07.910Z,2.02
2023-01-28T15:13:38.985Z,2.04
2023-01-28T15:16:07.233Z,2.04
2023-01-28T15:18:53.286Z,2.02
2023-01-28T15:21:25.169Z,2.01
2023-01-28T15:23:54.707Z,2.02
2023-01-28T15:26:46.231Z,2.02
2023-01-28T15:29:33.917Z,2.04
2023-01-28T15:32:02.256Z,2.06
2023-01-28T15:34:32.909Z,2.02
2023-01-28T15:37:01.425Z,1.98
2023-01-28T15:39:30.590Z,1.98
2023-01-28T15:42:06.694Z,1.94
2023-01-28T15:44:45.055Z,1.98
2023-01-28T15:47:21.488Z,1.94
2023-01-28T15:49:51.393Z,1.94
2023-01-28T15:52:19.357Z,1.94
2023-01-28T15:54:52.389Z,1.93
2023-01-28T15:57:38.891Z,1.96
2023-01-28T16:00:16.708Z,1.94
2023-01-28T16:02:46.175Z,1.94
2023-01-28T16:05:26.906Z,1.91
2023-01-28T16:07:55.061Z,1.89
2023-01-28T16:10:26.235Z,1.92
2023-01-28T16:12:56.006Z,1.91
2023-01-28T16:15:23.974Z,1.91
2023-01-28T16:17:52.659Z,1.90
2023-01-28T16:20:28.159Z,1.92
2023-01-28T16:23:03.368Z,1.92
2023-01-28T16:25:35.926Z,1.94
2023-01-28T16:28:04.064Z,1.93
2023-01-28T16:30:32.020Z,1.93
2023-01-28T16:33:00.004Z,1.92
2023-01-28T16:35:41.781Z,1.93
2023-01-28T16:38:20.008Z,1.92
2023-01-28T16:40:48.165Z,1.92
2023-01-28T16:43:16.709Z,1.88
2023-01-28T16:45:45.999Z,1.90
2023-01-28T16:48:14.085Z,1.93
2023-01-28T16:50:42.443Z,1.91
2023-01-28T16:53:27.416Z,1.95
2023-01-28T16:55:56.183Z,1.93
2023-01-28T16:58:25.278Z,1.90
2023-01-28T17:00:54.450Z,1.90
2023-01-28T17:03:22.303Z,1.88
2023-01-28T17:05:50.108Z,1.88
2023-01-28T17:08:18.258Z,1.90
2023-01-28T17:10:46.223Z,1.91
2023-01-28T17:13:14.075Z,1.91
2023-01-28T17:15:43.920Z,1.90
2023-01-28T17:18:12.552Z,1.92
2023-01-28T17:20:41.633Z,1.91
2023-01-28T17:23:10.459Z,1.93
2023-01-28T17:25:41.359Z,1.88
2023-01-28T17:28:09.653Z,1.87
2023-01-28T17:30:41.215Z,1.87
2023-01-28T17:33:09.598Z,1.86
2023-01-28T17:35:37.465Z,1.87
2023-01-28T17:38:06.415Z,1.90
2023-01-28T17:40:34.328Z,1.89
2023-01-28T17:43:02.154Z,1.88
2023-01-28T17:45:32.500Z,1.90
2023-01-28T17:48:00.587Z,1.88
2023-01-28T17:50:28.563Z,1.92
2023-01-28T17:52:57.303Z,1.89
2023-01-28T17:55:25.675Z,1.89
2023-01-28T17:57:53.589Z,1.89
2023-01-28T18:00:22.157Z,1.91
2023-01-28T18:02:53.660Z,1.91
2023-01-28T18:05:21.845Z,1.94
2023-01-28T18:07:51.422Z,1.92
2023-01-28T18:10:19.443Z,1.92
2023-01-28T18:12:47.737Z,1.87
2023-01-28T18:15:16.037Z,1.89
2023-01-28T18:17:44.286Z,1.90
2023-01-28T18:20:12.456Z,1.91
2023-01-28T18:22:40.377Z,1.89
2023-01-28T18:25:08.616Z,1.89
2023-01-28T18:27:36.456Z,1.86
2023-01-28T18:30:04.381Z,1.86
2023-01-28T18:32:32.412Z,1.88
2023-01-28T18:35:00.220Z,1.84
2023-01-28T18:37:28.239Z,1.83
2023-01-28T18:39:56.108Z,1.84
2023-01-28T18:42:23.983Z,1.86
2023-01-28T18:44:51.865Z,1.84
2023-01-28T18:47:19.810Z,1.86
2023-01-28T18:49:47.647Z,1.84
2023-01-28T18:52:15.380Z,1.86
2023-01-28T18:54:43.221Z,1.84
2023-01-28T18:57:11.042Z,1.84
2023-01-28T18:59:39.390Z,1.82
2023-01-28T19:02:07.554Z,1.81
2023-01-28T19:04:35.381Z,1.82
2023-01-28T19:07:03.415Z,1.81
2023-01-28T19:09:31.165Z,1.79
2023-01-28T19:11:59.012Z,1.78
2023-01-28T19:14:26.754Z,1.74
2023-01-28T19:16:54.587Z,1.72
2023-01-28T19:19:22.350Z,1.68
2023-01-28T19:21:50.301Z,1.67
2023-01-28T19:24:18.226Z,1.64
2023-01-28T19:26:46.144Z,1.64
2023-01-28T19:29:15.791Z,1.62
2023-01-28T19:31:44.957Z,1.61
2023-01-28T19:34:12.989Z,1.57
2023-01-28T19:36:41.437Z,1.59
2023-01-28T19:39:09.677Z,1.57
2023-01-28T19:41:37.764Z,1.56
2023-01-28T19:44:06.115Z,1.57
2023-01-28T19:46:34.400Z,1.51
2023-01-28T19:49:02.218Z,1.51
2023-01-28T19:51:30.061Z,1.47
2023-01-28T19:53:57.981Z,1.46
2023-01-28T19:56:28.167Z,1.42
2023-01-28T19:58:56.013Z,1.42
2023-01-28T20:01:27.261Z,1.41
2023-01-28T20:03:59.915Z,1.42
2023-01-28T20:06:28.969Z,1.40
2023-01-28T20:08:58.983Z,1.37
2023-01-28T20:11:26.899Z,1.38
2023-01-28T20:13:55.840Z,1.39
2023-01-28T20:16:27.595Z,1.35
2023-01-28T20:19:00.540Z,1.33
2023-01-28T20:21:29.058Z,1.31
2023-01-28T20:23:57.600Z,1.31
2023-01-28T20:26:27.144Z,1.28
2023-01-28T20:28:54.934Z,1.26
2023-01-28T20:31:22.837Z,1.24
2023-01-28T20:33:50.754Z,1.21
2023-01-28T20:36:18.663Z,1.21
2023-01-28T20:38:47.359Z,1.19
2023-01-28T20:41:21.963Z,1.17
2023-01-28T20:43:50.307Z,1.15
2023-01-28T20:46:21.270Z,1.13
2023-01-28T20:48:49.372Z,1.13
2023-01-28T20:51:18.878Z,1.11
2023-01-28T20:53:47.227Z,1.09
2023-01-28T20:56:15.871Z,1.03
2023-01-28T20:58:44.789Z,1.03
2023-01-28T21:01:24.540Z,1.01
2023-01-28T21:03:52.373Z,1.00
2023-01-28T21:06:20.376Z,1.00
2023-01-28T21:08:48.210Z,0.98
2023-01-28T21:11:16.234Z,0.97
2023-01-28T21:13:44.104Z,0.94
2023-01-28T21:16:11.975Z,0.93
2023-01-28T21:18:39.775Z,0.90
2023-01-28T21:21:28.301Z,0.88
2023-01-28T21:23:58.832Z,0.85
2023-01-28T21:26:27.174Z,0.82
2023-01-28T21:28:55.108Z,0.82
2023-01-28T21:31:24.874Z,0.78
2023-01-28T21:33:54.210Z,0.77
2023-01-28T21:36:22.048Z,0.75
2023-01-28T21:38:57.791Z,0.73
2023-01-28T21:41:25.844Z,0.73
2023-01-28T21:43:54.863Z,0.72
2023-01-28T21:46:26.780Z,0.74
2023-01-28T21:48:58.612Z,0.74
2023-01-28T21:51:46.887Z,0.74
2023-01-28T21:54:18.870Z,0.73
2023-01-28T21:56:47.589Z,0.73
2023-01-28T21:59:37.404Z,0.71
2023-01-28T22:02:11.750Z,0.70
2023-01-28T22:04:40.915Z,0.72
2023-01-28T22:07:10.448Z,0.72
2023-01-28T22:09:38.839Z,0.72
2023-01-28T22:12:09.159Z,0.71
2023-01-28T22:14:37.736Z,0.71
2023-01-28T22:17:06.019Z,0.71
2023-01-28T22:19:34.069Z,0.71
2023-01-28T22:22:02.790Z,0.71
2023-01-28T22:24:31.732Z,0.68
2023-01-28T22:26:59.716Z,0.67
2023-01-28T22:29:28.058Z,0.64
2023-01-28T22:31:56.029Z,0.66
2023-01-28T22:34:24.109Z,0.64
2023-01-28T22:36:52.285Z,0.62
2023-01-28T22:39:20.393Z,0.62
2023-01-28T22:41:48.563Z,0.62
2023-01-28T22:44:16.544Z,0.62
2023-01-28T22:46:44.504Z,0.60
2023-01-28T22:49:13.176Z,0.58
2023-01-28T22:51:41.043Z,0.59
2023-01-28T22:54:09.261Z,0.59
2023-01-28T22:56:37.211Z,0.61
2023-01-28T22:59:05.345Z,0.62
2023-01-28T23:01:33.390Z,0.62
2023-01-28T23:04:01.321Z,0.60
2023-01-28T23:06:29.694Z,0.61
2023-01-28T23:08:57.637Z,0.62
2023-01-28T23:11:29.575Z,0.64
2023-01-28T23:14:17.447Z,0.67
2023-01-28T23:17:03.972Z,0.66
2023-01-28T23:19:50.604Z,0.66
2023-01-28T23:22:41.947Z,0.68
2023-01-28T23:25:09.895Z,0.66
2023-01-28T23:27:37.906Z,0.67
2023-01-28T23:30:11.018Z,0.66
2023-01-28T23:32:43.868Z,0.63
2023-01-28T23:35:11.800Z,0.63
2023-01-28T23:37:39.899Z,0.62
2023-01-28T23:40:08.311Z,0.63
2023-01-28T23:42:36.379Z,0.63
2023-01-28T23:45:04.452Z,0.62
2023-01-28T23:47:32.315Z,0.64
2023-01-28T23:50:00.559Z,0.62
2023-01-28T23:52:28.561Z,0.64
2023-01-28T23:54:56.822Z,0.65
2023-01-28T23:57:24.611Z,0.67
2023-01-28T23:59:52.479Z,0.67
